PWSweather.com
Personal Weather Stations
Station Observations
BETACDT
Kansas City, MT

Kansas City, MT

Lat: 39.287, Lon: -94.447

Elevation: 961

Station Type:

High Low Average
Temperature 64.8°F18.2°C 37.6°F3.1°C 50.8°F10.4°C
Dew Point 41.1°F5.1°C 30.9°F-0.6°C 37.2°F2.9°C
Winds 8.0 mph 12.9 kmh Calm Calm 2.0 mph SSW3.2 kmh SSW
Wind Gusts -- -- --
Humidity 91% 35% 63%
Pressure 30.08 in1018.6 mb 29.97 in1014.9 mb -
Precipitation 0.00 in0.0 mm - -
Hour Temp Dew Point Humidity Winds Wind Gusts Pressure Precip Precip Rate Daily Precip Total
12:03 AM 47.8°F8.8°C 37.4°F3.0°C 67% 1.0 mph S1.6 kmh S -- 29.97 in1014.9 mb 0.00 in0.0 mm 0.00 in0.0 mm 0.00 in0.0 mm
12:08 AM 47.5°F8.6°C 37.5°F3.1°C 68% Calm Calm -- 29.97 in1014.9 mb 0.00 in0.0 mm 0.00 in0.0 mm 0.00 in0.0 mm
12:13 AM 47.3°F8.5°C 37.7°F3.2°C 69% 2.0 mph SSE3.2 kmh SSE -- 29.97 in1014.9 mb 0.00 in0.0 mm 0.00 in0.0 mm 0.00 in0.0 mm
12:18 AM 47.1°F8.4°C 37.5°F3.1°C 69% 1.0 mph SSW1.6 kmh SSW -- 29.97 in1014.9 mb 0.00 in0.0 mm 0.00 in0.0 mm 0.00 in0.0 mm
12:23 AM 47.1°F8.4°C 37.5°F3.1°C 69% 1.0 mph ENE1.6 kmh ENE -- 29.97 in1014.9 mb 0.00 in0.0 mm 0.00 in0.0 mm 0.00 in0.0 mm
12:28 AM 46.9°F8.3°C 37.6°F3.1°C 70% 1.0 mph 1.6 kmh -- 29.97 in1014.9 mb 0.00 in0.0 mm 0.00 in0.0 mm 0.00 in0.0 mm
12:33 AM 46.6°F8.1°C 37.7°F3.2°C 71% Calm Calm -- 29.97 in1014.9 mb 0.00 in0.0 mm 0.00 in0.0 mm 0.00 in0.0 mm
12:38 AM 46.4°F8.0°C 37.5°F3.1°C 71% Calm Calm -- 29.98 in1015.2 mb 0.00 in0.0 mm 0.00 in0.0 mm 0.00 in0.0 mm
12:43 AM 46.2°F7.9°C 37.7°F3.2°C 72% Calm Calm -- 29.98 in1015.2 mb 0.00 in0.0 mm 0.00 in0.0 mm 0.00 in0.0 mm
12:48 AM 46.0°F7.8°C 37.8°F3.2°C 73% 1.0 mph SSE1.6 kmh SSE -- 29.98 in1015.2 mb 0.00 in0.0 mm 0.00 in0.0 mm 0.00 in0.0 mm
12:53 AM 45.7°F7.6°C 37.5°F3.1°C 73% Calm Calm -- 29.98 in1015.2 mb 0.00 in0.0 mm 0.00 in0.0 mm 0.00 in0.0 mm
12:58 AM 45.3°F7.4°C 37.5°F3.1°C 74% Calm Calm -- 29.98 in1015.2 mb 0.00 in0.0 mm 0.00 in0.0 mm 0.00 in0.0 mm
01:06 AM 44.8°F7.1°C 37.4°F3.0°C 75% Calm Calm -- 29.98 in1015.2 mb 0.00 in0.0 mm 0.00 in0.0 mm 0.00 in0.0 mm
01:13 AM 44.6°F7.0°C 37.5°F3.1°C 76% Calm Calm -- 29.98 in1015.2 mb 0.00 in0.0 mm 0.00 in0.0 mm 0.00 in0.0 mm
01:18 AM 44.2°F6.8°C 37.5°F3.1°C 77% Calm Calm -- 29.98 in1015.2 mb 0.00 in0.0 mm 0.00 in0.0 mm 0.00 in0.0 mm
01:23 AM 43.9°F6.6°C 37.2°F2.9°C 77% 1.0 mph SSW1.6 kmh SSW -- 29.98 in1015.2 mb 0.00 in0.0 mm 0.00 in0.0 mm 0.00 in0.0 mm
01:28 AM 44.1°F6.7°C 37.7°F3.2°C 78% Calm Calm -- 29.98 in1015.2 mb 0.00 in0.0 mm 0.00 in0.0 mm 0.00 in0.0 mm
01:33 AM 43.7°F6.5°C 37.3°F2.9°C 78% 1.0 mph SE1.6 kmh SE -- 29.98 in1015.2 mb 0.00 in0.0 mm 0.00 in0.0 mm 0.00 in0.0 mm
01:38 AM 43.3°F6.3°C 37.2°F2.9°C 79% Calm Calm -- 29.98 in1015.2 mb 0.00 in0.0 mm 0.00 in0.0 mm 0.00 in0.0 mm
01:43 AM 43.2°F6.2°C 37.1°F2.8°C 79% Calm Calm -- 29.98 in1015.2 mb 0.00 in0.0 mm 0.00 in0.0 mm 0.00 in0.0 mm
01:48 AM 43.2°F6.2°C 37.5°F3.1°C 80% Calm Calm -- 29.98 in1015.2 mb 0.00 in0.0 mm 0.00 in0.0 mm 0.00 in0.0 mm
01:53 AM 43.0°F6.1°C 37.3°F2.9°C 80% Calm Calm -- 29.98 in1015.2 mb 0.00 in0.0 mm 0.00 in0.0 mm 0.00 in0.0 mm
01:58 AM 43.2°F6.2°C 38.1°F3.4°C 82% Calm Calm -- 29.98 in1015.2 mb 0.00 in0.0 mm 0.00 in0.0 mm 0.00 in0.0 mm
02:03 AM 43.3°F6.3°C 37.9°F3.3°C 81% Calm Calm -- 29.98 in1015.2 mb 0.00 in0.0 mm 0.00 in0.0 mm 0.00 in0.0 mm
02:08 AM 42.6°F5.9°C 37.2°F2.9°C 81% Calm Calm -- 29.98 in1015.2 mb 0.00 in0.0 mm 0.00 in0.0 mm 0.00 in0.0 mm
02:13 AM 42.8°F6.0°C 37.4°F3.0°C 81% Calm Calm -- 29.98 in1015.2 mb 0.00 in0.0 mm 0.00 in0.0 mm 0.00 in0.0 mm
02:18 AM 42.6°F5.9°C 37.2°F2.9°C 81% Calm Calm -- 29.97 in1014.9 mb 0.00 in0.0 mm 0.00 in0.0 mm 0.00 in0.0 mm
02:23 AM 42.4°F5.8°C 37.3°F2.9°C 82% Calm Calm -- 29.98 in1015.2 mb 0.00 in0.0 mm 0.00 in0.0 mm 0.00 in0.0 mm
02:28 AM 41.5°F5.3°C 36.7°F2.6°C 83% Calm Calm -- 29.98 in1015.2 mb 0.00 in0.0 mm 0.00 in0.0 mm 0.00 in0.0 mm
02:33 AM 41.7°F5.4°C 37.2°F2.9°C 84% Calm Calm -- 29.98 in1015.2 mb 0.00 in0.0 mm 0.00 in0.0 mm 0.00 in0.0 mm
02:38 AM 41.4°F5.2°C 37.2°F2.9°C 85% 1.0 mph SSE1.6 kmh SSE -- 29.98 in1015.2 mb 0.00 in0.0 mm 0.00 in0.0 mm 0.00 in0.0 mm
02:43 AM 41.4°F5.2°C 37.2°F2.9°C 85% Calm Calm -- 29.98 in1015.2 mb 0.00 in0.0 mm 0.00 in0.0 mm 0.00 in0.0 mm
02:48 AM 41.2°F5.1°C 37.0°F2.8°C 85% Calm Calm -- 29.98 in1015.2 mb 0.00 in0.0 mm 0.00 in0.0 mm 0.00 in0.0 mm
02:53 AM 40.8°F4.9°C 36.9°F2.7°C 86% 1.0 mph S1.6 kmh S -- 29.98 in1015.2 mb 0.00 in0.0 mm 0.00 in0.0 mm 0.00 in0.0 mm
02:58 AM 40.5°F4.7°C 36.6°F2.6°C 86% 1.0 mph ESE1.6 kmh ESE -- 29.98 in1015.2 mb 0.00 in0.0 mm 0.00 in0.0 mm 0.00 in0.0 mm
03:03 AM 40.3°F4.6°C 36.5°F2.5°C 86% 2.0 mph SSW3.2 kmh SSW -- 29.98 in1015.2 mb 0.00 in0.0 mm 0.00 in0.0 mm 0.00 in0.0 mm
03:08 AM 40.3°F4.6°C 36.7°F2.6°C 87% 2.0 mph WSW3.2 kmh WSW -- 29.98 in1015.2 mb 0.00 in0.0 mm 0.00 in0.0 mm 0.00 in0.0 mm
03:13 AM 40.5°F4.7°C 36.9°F2.7°C 87% 2.0 mph WSW3.2 kmh WSW -- 29.98 in1015.2 mb 0.00 in0.0 mm 0.00 in0.0 mm 0.00 in0.0 mm
03:18 AM 40.6°F4.8°C 37.0°F2.8°C 87% 2.0 mph SSW3.2 kmh SSW -- 29.98 in1015.2 mb 0.00 in0.0 mm 0.00 in0.0 mm 0.00 in0.0 mm
03:23 AM 41.0°F5.0°C 37.4°F3.0°C 87% 2.0 mph SW3.2 kmh SW -- 29.98 in1015.2 mb 0.00 in0.0 mm 0.00 in0.0 mm 0.00 in0.0 mm
03:28 AM 41.0°F5.0°C 37.4°F3.0°C 87% 2.0 mph SSW3.2 kmh SSW -- 29.99 in1015.6 mb 0.00 in0.0 mm 0.00 in0.0 mm 0.00 in0.0 mm
03:33 AM 41.0°F5.0°C 37.4°F3.0°C 87% 2.0 mph WSW3.2 kmh WSW -- 29.99 in1015.6 mb 0.00 in0.0 mm 0.00 in0.0 mm 0.00 in0.0 mm
03:38 AM 41.0°F5.0°C 37.4°F3.0°C 87% 1.0 mph WSW1.6 kmh WSW -- 29.98 in1015.2 mb 0.00 in0.0 mm 0.00 in0.0 mm 0.00 in0.0 mm
03:43 AM 41.0°F5.0°C 37.4°F3.0°C 87% Calm Calm -- 29.98 in1015.2 mb 0.00 in0.0 mm 0.00 in0.0 mm 0.00 in0.0 mm
03:48 AM 40.8°F4.9°C 37.2°F2.9°C 87% Calm Calm -- 29.98 in1015.2 mb 0.00 in0.0 mm 0.00 in0.0 mm 0.00 in0.0 mm
03:53 AM 40.8°F4.9°C 37.2°F2.9°C 87% 2.0 mph W3.2 kmh W -- 29.98 in1015.2 mb 0.00 in0.0 mm 0.00 in0.0 mm 0.00 in0.0 mm
03:58 AM 40.8°F4.9°C 37.2°F2.9°C 87% 2.0 mph W3.2 kmh W -- 29.98 in1015.2 mb 0.00 in0.0 mm 0.00 in0.0 mm 0.00 in0.0 mm
04:03 AM 40.8°F4.9°C 37.2°F2.9°C 87% 2.0 mph W3.2 kmh W -- 29.98 in1015.2 mb 0.00 in0.0 mm 0.00 in0.0 mm 0.00 in0.0 mm
04:08 AM 40.8°F4.9°C 37.2°F2.9°C 87% 2.0 mph W3.2 kmh W -- 29.99 in1015.6 mb 0.00 in0.0 mm 0.00 in0.0 mm 0.00 in0.0 mm
04:13 AM 40.8°F4.9°C 37.2°F2.9°C 87% 2.0 mph SSW3.2 kmh SSW -- 29.99 in1015.6 mb 0.00 in0.0 mm 0.00 in0.0 mm 0.00 in0.0 mm
04:18 AM 40.6°F4.8°C 37.0°F2.8°C 87% 2.0 mph W3.2 kmh W -- 29.99 in1015.6 mb 0.00 in0.0 mm 0.00 in0.0 mm 0.00 in0.0 mm
04:23 AM 40.6°F4.8°C 37.0°F2.8°C 87% 2.0 mph W3.2 kmh W -- 29.99 in1015.6 mb 0.00 in0.0 mm 0.00 in0.0 mm 0.00 in0.0 mm
04:28 AM 40.5°F4.7°C 36.9°F2.7°C 87% 1.0 mph S1.6 kmh S -- 29.99 in1015.6 mb 0.00 in0.0 mm 0.00 in0.0 mm 0.00 in0.0 mm
04:33 AM 40.5°F4.7°C 36.9°F2.7°C 87% 2.0 mph S3.2 kmh S -- 29.99 in1015.6 mb 0.00 in0.0 mm 0.00 in0.0 mm 0.00 in0.0 mm
04:38 AM 40.1°F4.5°C 36.5°F2.5°C 87% Calm Calm -- 29.99 in1015.6 mb 0.00 in0.0 mm 0.00 in0.0 mm 0.00 in0.0 mm
04:43 AM 39.7°F4.3°C 36.2°F2.3°C 87% 1.0 mph S1.6 kmh S -- 29.99 in1015.6 mb 0.00 in0.0 mm 0.00 in0.0 mm 0.00 in0.0 mm
04:48 AM 39.6°F4.2°C 36.3°F2.4°C 88% 2.0 mph SW3.2 kmh SW -- 29.99 in1015.6 mb 0.00 in0.0 mm 0.00 in0.0 mm 0.00 in0.0 mm
04:53 AM 39.4°F4.1°C 36.1°F2.3°C 88% Calm Calm -- 30.00 in1015.9 mb 0.00 in0.0 mm 0.00 in0.0 mm 0.00 in0.0 mm
04:58 AM 39.2°F4.0°C 35.9°F2.2°C 88% 1.0 mph SSW1.6 kmh SSW -- 29.99 in1015.6 mb 0.00 in0.0 mm 0.00 in0.0 mm 0.00 in0.0 mm
05:03 AM 39.0°F3.9°C 36.0°F2.2°C 89% 1.0 mph SSW1.6 kmh SSW -- 30.00 in1015.9 mb 0.00 in0.0 mm 0.00 in0.0 mm 0.00 in0.0 mm
05:08 AM 39.0°F3.9°C 36.0°F2.2°C 89% 2.0 mph WSW3.2 kmh WSW -- 29.99 in1015.6 mb 0.00 in0.0 mm 0.00 in0.0 mm 0.00 in0.0 mm
05:13 AM 39.2°F4.0°C 36.2°F2.3°C 89% 1.0 mph SSW1.6 kmh SSW -- 30.00 in1015.9 mb 0.00 in0.0 mm 0.00 in0.0 mm 0.00 in0.0 mm
05:18 AM 39.2°F4.0°C 36.2°F2.3°C 89% 2.0 mph SW3.2 kmh SW -- 30.00 in1015.9 mb 0.00 in0.0 mm 0.00 in0.0 mm 0.00 in0.0 mm
05:23 AM 39.2°F4.0°C 36.2°F2.3°C 89% 2.0 mph SW3.2 kmh SW -- 30.00 in1015.9 mb 0.00 in0.0 mm 0.00 in0.0 mm 0.00 in0.0 mm
05:28 AM 39.0°F3.9°C 36.0°F2.2°C 89% Calm Calm -- 30.00 in1015.9 mb 0.00 in0.0 mm 0.00 in0.0 mm 0.00 in0.0 mm
05:33 AM 38.8°F3.8°C 35.8°F2.1°C 89% Calm Calm -- 30.00 in1015.9 mb 0.00 in0.0 mm 0.00 in0.0 mm 0.00 in0.0 mm
05:38 AM 38.5°F3.6°C 35.5°F1.9°C 89% Calm Calm -- 30.00 in1015.9 mb 0.00 in0.0 mm 0.00 in0.0 mm 0.00 in0.0 mm
05:43 AM 38.1°F3.4°C 35.2°F1.8°C 89% Calm Calm -- 30.00 in1015.9 mb 0.00 in0.0 mm 0.00 in0.0 mm 0.00 in0.0 mm
05:48 AM 37.8°F3.2°C 34.9°F1.6°C 89% Calm Calm -- 30.00 in1015.9 mb 0.00 in0.0 mm 0.00 in0.0 mm 0.00 in0.0 mm
05:53 AM 37.6°F3.1°C 35.2°F1.8°C 91% Calm Calm -- 30.00 in1015.9 mb 0.00 in0.0 mm 0.00 in0.0 mm 0.00 in0.0 mm
05:58 AM 37.6°F3.1°C 35.2°F1.8°C 91% Calm Calm -- 30.00 in1015.9 mb 0.00 in0.0 mm 0.00 in0.0 mm 0.00 in0.0 mm
06:03 AM 37.6°F3.1°C 35.2°F1.8°C 91% Calm Calm -- 30.00 in1015.9 mb 0.00 in0.0 mm 0.00 in0.0 mm 0.00 in0.0 mm
06:08 AM 37.6°F3.1°C 35.2°F1.8°C 91% Calm Calm -- 30.00 in1015.9 mb 0.00 in0.0 mm 0.00 in0.0 mm 0.00 in0.0 mm
06:13 AM 37.6°F3.1°C 35.2°F1.8°C 91% 2.0 mph W3.2 kmh W -- 30.00 in1015.9 mb 0.00 in0.0 mm 0.00 in0.0 mm 0.00 in0.0 mm
06:18 AM 37.9°F3.3°C 35.5°F1.9°C 91% 2.0 mph W3.2 kmh W -- 30.00 in1015.9 mb 0.00 in0.0 mm 0.00 in0.0 mm 0.00 in0.0 mm
06:23 AM 37.9°F3.3°C 35.5°F1.9°C 91% 2.0 mph W3.2 kmh W -- 30.00 in1015.9 mb 0.00 in0.0 mm 0.00 in0.0 mm 0.00 in0.0 mm
06:28 AM 38.1°F3.4°C 35.7°F2.1°C 91% 2.0 mph WSW3.2 kmh WSW -- 30.00 in1015.9 mb 0.00 in0.0 mm 0.00 in0.0 mm 0.00 in0.0 mm
06:33 AM 38.5°F3.6°C 36.1°F2.3°C 91% 2.0 mph WSW3.2 kmh WSW -- 30.00 in1015.9 mb 0.00 in0.0 mm 0.00 in0.0 mm 0.00 in0.0 mm
06:38 AM 39.0°F3.9°C 36.6°F2.6°C 91% 2.0 mph W3.2 kmh W -- 30.00 in1015.9 mb 0.00 in0.0 mm 0.00 in0.0 mm 0.00 in0.0 mm
06:43 AM 39.6°F4.2°C 36.9°F2.7°C 90% 1.0 mph W1.6 kmh W -- 30.00 in1015.9 mb 0.00 in0.0 mm 0.00 in0.0 mm 0.00 in0.0 mm
06:48 AM 40.1°F4.5°C 37.1°F2.8°C 89% Calm Calm -- 30.00 in1015.9 mb 0.00 in0.0 mm 0.00 in0.0 mm 0.00 in0.0 mm
06:53 AM 40.5°F4.7°C 36.6°F2.6°C 86% Calm Calm -- 30.00 in1015.9 mb 0.00 in0.0 mm 0.00 in0.0 mm 0.00 in0.0 mm
06:58 AM 40.6°F4.8°C 36.7°F2.6°C 86% Calm Calm -- 30.00 in1015.9 mb 0.00 in0.0 mm 0.00 in0.0 mm 0.00 in0.0 mm
07:03 AM 40.8°F4.9°C 36.9°F2.7°C 86% Calm Calm -- 30.01 in1016.3 mb 0.00 in0.0 mm 0.00 in0.0 mm 0.00 in0.0 mm
07:08 AM 40.6°F4.8°C 37.3°F2.9°C 88% Calm Calm -- 30.01 in1016.3 mb 0.00 in0.0 mm 0.00 in0.0 mm 0.00 in0.0 mm
07:13 AM 40.6°F4.8°C 37.6°F3.1°C 89% Calm Calm -- 30.01 in1016.3 mb 0.00 in0.0 mm 0.00 in0.0 mm 0.00 in0.0 mm
07:18 AM 41.0°F5.0°C 38.0°F3.3°C 89% Calm Calm -- 30.01 in1016.3 mb 0.00 in0.0 mm 0.00 in0.0 mm 0.00 in0.0 mm
07:23 AM 40.8°F4.9°C 38.1°F3.4°C 90% Calm Calm -- 30.01 in1016.3 mb 0.00 in0.0 mm 0.00 in0.0 mm 0.00 in0.0 mm
07:28 AM 42.1°F5.6°C 38.8°F3.8°C 88% Calm Calm -- 30.01 in1016.3 mb 0.00 in0.0 mm 0.00 in0.0 mm 0.00 in0.0 mm
07:33 AM 43.0°F6.1°C 39.4°F4.1°C 87% Calm Calm -- 30.01 in1016.3 mb 0.00 in0.0 mm 0.00 in0.0 mm 0.00 in0.0 mm
07:38 AM 43.2°F6.2°C 39.3°F4.1°C 86% Calm Calm -- 30.02 in1016.6 mb 0.00 in0.0 mm 0.00 in0.0 mm 0.00 in0.0 mm
07:43 AM 43.9°F6.6°C 40.3°F4.6°C 87% Calm Calm -- 30.02 in1016.6 mb 0.00 in0.0 mm 0.00 in0.0 mm 0.00 in0.0 mm
07:48 AM 43.9°F6.6°C 40.0°F4.4°C 86% Calm Calm -- 30.02 in1016.6 mb 0.00 in0.0 mm 0.00 in0.0 mm 0.00 in0.0 mm
07:53 AM 44.2°F6.8°C 40.3°F4.6°C 86% Calm Calm -- 30.02 in1016.6 mb 0.00 in0.0 mm 0.00 in0.0 mm 0.00 in0.0 mm
07:58 AM 45.0°F7.2°C 41.1°F5.1°C 86% Calm Calm -- 30.03 in1016.9 mb 0.00 in0.0 mm 0.00 in0.0 mm 0.00 in0.0 mm
08:03 AM 45.3°F7.4°C 41.1°F5.1°C 85% Calm Calm -- 30.03 in1016.9 mb 0.00 in0.0 mm 0.00 in0.0 mm 0.00 in0.0 mm
08:08 AM 45.5°F7.5°C 40.3°F4.6°C 82% 2.0 mph S3.2 kmh S -- 30.03 in1016.9 mb 0.00 in0.0 mm 0.00 in0.0 mm 0.00 in0.0 mm
08:13 AM 45.9°F7.7°C 40.1°F4.5°C 80% 2.0 mph SW3.2 kmh SW -- 30.03 in1016.9 mb 0.00 in0.0 mm 0.00 in0.0 mm 0.00 in0.0 mm
08:18 AM 46.0°F7.8°C 39.9°F4.4°C 79% 1.0 mph WSW1.6 kmh WSW -- 30.03 in1016.9 mb 0.00 in0.0 mm 0.00 in0.0 mm 0.00 in0.0 mm
08:23 AM 46.6°F8.1°C 40.4°F4.7°C 79% Calm Calm -- 30.03 in1016.9 mb 0.00 in0.0 mm 0.00 in0.0 mm 0.00 in0.0 mm
08:28 AM 46.2°F7.9°C 40.1°F4.5°C 79% 3.0 mph W4.8 kmh W -- 30.04 in1017.3 mb 0.00 in0.0 mm 0.00 in0.0 mm 0.00 in0.0 mm
08:33 AM 46.4°F8.0°C 39.3°F4.1°C 76% 2.0 mph SW3.2 kmh SW -- 30.04 in1017.3 mb 0.00 in0.0 mm 0.00 in0.0 mm 0.00 in0.0 mm
08:38 AM 47.5°F8.6°C 37.5°F3.1°C 68% 5.0 mph W8.0 kmh W -- 30.04 in1017.3 mb 0.00 in0.0 mm 0.00 in0.0 mm 0.00 in0.0 mm
08:43 AM 47.7°F8.7°C 36.9°F2.7°C 66% 3.0 mph W4.8 kmh W -- 30.04 in1017.3 mb 0.00 in0.0 mm 0.00 in0.0 mm 0.00 in0.0 mm
08:48 AM 47.8°F8.8°C 35.8°F2.1°C 63% 3.0 mph NNW4.8 kmh NNW -- 30.05 in1017.6 mb 0.00 in0.0 mm 0.00 in0.0 mm 0.00 in0.0 mm
08:53 AM 48.2°F9.0°C 35.8°F2.1°C 62% 4.0 mph WSW6.4 kmh WSW -- 30.04 in1017.3 mb 0.00 in0.0 mm 0.00 in0.0 mm 0.00 in0.0 mm
08:58 AM 48.7°F9.3°C 36.3°F2.4°C 62% 3.0 mph W4.8 kmh W -- 30.05 in1017.6 mb 0.00 in0.0 mm 0.00 in0.0 mm 0.00 in0.0 mm
09:03 AM 49.3°F9.6°C 35.2°F1.8°C 58% 5.0 mph W8.0 kmh W -- 30.04 in1017.3 mb 0.00 in0.0 mm 0.00 in0.0 mm 0.00 in0.0 mm
09:08 AM 50.0°F10.0°C 35.4°F1.9°C 57% 4.0 mph W6.4 kmh W -- 30.04 in1017.3 mb 0.00 in0.0 mm 0.00 in0.0 mm 0.00 in0.0 mm
09:13 AM 50.0°F10.0°C 35.8°F2.1°C 58% 2.0 mph WSW3.2 kmh WSW -- 30.05 in1017.6 mb 0.00 in0.0 mm 0.00 in0.0 mm 0.00 in0.0 mm
09:18 AM 50.4°F10.2°C 35.3°F1.8°C 56% 2.0 mph W3.2 kmh W -- 30.05 in1017.6 mb 0.00 in0.0 mm 0.00 in0.0 mm 0.00 in0.0 mm
09:23 AM 51.1°F10.6°C 36.0°F2.2°C 56% 2.0 mph ENE3.2 kmh ENE -- 30.05 in1017.6 mb 0.00 in0.0 mm 0.00 in0.0 mm 0.00 in0.0 mm
09:28 AM 51.4°F10.8°C 36.7°F2.6°C 57% 1.0 mph S1.6 kmh S -- 30.05 in1017.6 mb 0.00 in0.0 mm 0.00 in0.0 mm 0.00 in0.0 mm
09:33 AM 52.5°F11.4°C 35.9°F2.2°C 53% 5.0 mph W8.0 kmh W -- 30.05 in1017.6 mb 0.00 in0.0 mm 0.00 in0.0 mm 0.00 in0.0 mm
09:38 AM 52.5°F11.4°C 35.4°F1.9°C 52% 4.0 mph W6.4 kmh W -- 30.05 in1017.6 mb 0.00 in0.0 mm 0.00 in0.0 mm 0.00 in0.0 mm
09:43 AM 53.4°F11.9°C 36.2°F2.3°C 52% 4.0 mph W6.4 kmh W -- 30.05 in1017.6 mb 0.00 in0.0 mm 0.00 in0.0 mm 0.00 in0.0 mm
09:48 AM 53.8°F12.1°C 33.5°F0.8°C 46% 3.0 mph W4.8 kmh W -- 30.05 in1017.6 mb 0.00 in0.0 mm 0.00 in0.0 mm 0.00 in0.0 mm
09:53 AM 53.6°F12.0°C 31.1°F-0.5°C 42% 4.0 mph 6.4 kmh -- 30.05 in1017.6 mb 0.00 in0.0 mm 0.00 in0.0 mm 0.00 in0.0 mm
09:58 AM 53.8°F12.1°C 31.3°F-0.4°C 42% 3.0 mph WNW4.8 kmh WNW -- 30.05 in1017.6 mb 0.00 in0.0 mm 0.00 in0.0 mm 0.00 in0.0 mm
10:03 AM 53.8°F12.1°C 31.8°F-0.1°C 43% 4.0 mph ENE6.4 kmh ENE -- 30.05 in1017.6 mb 0.00 in0.0 mm 0.00 in0.0 mm 0.00 in0.0 mm
10:08 AM 54.3°F12.4°C 32.9°F0.5°C 44% 3.0 mph W4.8 kmh W -- 30.05 in1017.6 mb 0.00 in0.0 mm 0.00 in0.0 mm 0.00 in0.0 mm
10:13 AM 54.9°F12.7°C 34.0°F1.1°C 45% 6.0 mph SW9.7 kmh SW -- 30.05 in1017.6 mb 0.00 in0.0 mm 0.00 in0.0 mm 0.00 in0.0 mm
10:18 AM 54.7°F12.6°C 30.9°F-0.6°C 40% 5.0 mph NNE8.0 kmh NNE -- 30.05 in1017.6 mb 0.00 in0.0 mm 0.00 in0.0 mm 0.00 in0.0 mm
10:23 AM 54.7°F12.6°C 31.5°F-0.3°C 41% 4.0 mph NNE6.4 kmh NNE -- 30.05 in1017.6 mb 0.00 in0.0 mm 0.00 in0.0 mm 0.00 in0.0 mm
10:28 AM 55.0°F12.8°C 31.7°F-0.2°C 41% 3.0 mph W4.8 kmh W -- 30.05 in1017.6 mb 0.00 in0.0 mm 0.00 in0.0 mm 0.00 in0.0 mm
10:33 AM 54.9°F12.7°C 31.6°F-0.2°C 41% 6.0 mph W9.7 kmh W -- 30.05 in1017.6 mb 0.00 in0.0 mm 0.00 in0.0 mm 0.00 in0.0 mm
10:38 AM 55.2°F12.9°C 33.1°F0.6°C 43% 4.0 mph W6.4 kmh W -- 30.05 in1017.6 mb 0.00 in0.0 mm 0.00 in0.0 mm 0.00 in0.0 mm
10:43 AM 55.4°F13.0°C 33.3°F0.7°C 43% 7.0 mph 11.3 kmh -- 30.05 in1017.6 mb 0.00 in0.0 mm 0.00 in0.0 mm 0.00 in0.0 mm
10:48 AM 55.6°F13.1°C 33.5°F0.8°C 43% 7.0 mph SW11.3 kmh SW -- 30.05 in1017.6 mb 0.00 in0.0 mm 0.00 in0.0 mm 0.00 in0.0 mm
10:53 AM 55.8°F13.2°C 34.8°F1.6°C 45% 5.0 mph WSW8.0 kmh WSW -- 30.05 in1017.6 mb 0.00 in0.0 mm 0.00 in0.0 mm 0.00 in0.0 mm
10:58 AM 55.2°F12.9°C 33.1°F0.6°C 43% 3.0 mph WSW4.8 kmh WSW -- 30.05 in1017.6 mb 0.00 in0.0 mm 0.00 in0.0 mm 0.00 in0.0 mm
11:03 AM 55.6°F13.1°C 34.0°F1.1°C 44% 4.0 mph W6.4 kmh W -- 30.05 in1017.6 mb 0.00 in0.0 mm 0.00 in0.0 mm 0.00 in0.0 mm
11:08 AM 55.8°F13.2°C 34.8°F1.6°C 45% 3.0 mph S4.8 kmh S -- 30.05 in1017.6 mb 0.00 in0.0 mm 0.00 in0.0 mm 0.00 in0.0 mm
11:13 AM 56.1°F13.4°C 35.1°F1.7°C 45% 4.0 mph NE6.4 kmh NE -- 30.05 in1017.6 mb 0.00 in0.0 mm 0.00 in0.0 mm 0.00 in0.0 mm
11:18 AM 55.9°F13.3°C 34.3°F1.3°C 44% 4.0 mph S6.4 kmh S -- 30.05 in1017.6 mb 0.00 in0.0 mm 0.00 in0.0 mm 0.00 in0.0 mm
11:23 AM 56.5°F13.6°C 35.4°F1.9°C 45% 5.0 mph WSW8.0 kmh WSW -- 30.05 in1017.6 mb 0.00 in0.0 mm 0.00 in0.0 mm 0.00 in0.0 mm
11:28 AM 56.5°F13.6°C 34.3°F1.3°C 43% 5.0 mph W8.0 kmh W -- 30.05 in1017.6 mb 0.00 in0.0 mm 0.00 in0.0 mm 0.00 in0.0 mm
11:33 AM 57.6°F14.2°C 35.8°F2.1°C 44% 6.0 mph S9.7 kmh S -- 30.05 in1017.6 mb 0.00 in0.0 mm 0.00 in0.0 mm 0.00 in0.0 mm
11:38 AM 58.5°F14.7°C 36.7°F2.6°C 44% 2.0 mph ESE3.2 kmh ESE -- 30.05 in1017.6 mb 0.00 in0.0 mm 0.00 in0.0 mm 0.00 in0.0 mm
11:43 AM 57.9°F14.4°C 36.1°F2.3°C 44% 4.0 mph W6.4 kmh W -- 30.05 in1017.6 mb 0.00 in0.0 mm 0.00 in0.0 mm 0.00 in0.0 mm
11:48 AM 57.7°F14.3°C 35.9°F2.2°C 44% 5.0 mph W8.0 kmh W -- 30.05 in1017.6 mb 0.00 in0.0 mm 0.00 in0.0 mm 0.00 in0.0 mm
11:53 AM 58.6°F14.8°C 37.3°F2.9°C 45% 3.0 mph SSW4.8 kmh SSW -- 30.05 in1017.6 mb 0.00 in0.0 mm 0.00 in0.0 mm 0.00 in0.0 mm
11:58 AM 58.1°F14.5°C 34.5°F1.4°C 41% 5.0 mph W8.0 kmh W -- 30.04 in1017.3 mb 0.00 in0.0 mm 0.00 in0.0 mm 0.00 in0.0 mm
12:03 PM 59.0°F15.0°C 37.1°F2.8°C 44% 4.0 mph S6.4 kmh S -- 30.04 in1017.3 mb 0.00 in0.0 mm 0.00 in0.0 mm 0.00 in0.0 mm
12:08 PM 59.4°F15.2°C 35.7°F2.1°C 41% 5.0 mph W8.0 kmh W -- 30.04 in1017.3 mb 0.00 in0.0 mm 0.00 in0.0 mm 0.00 in0.0 mm
12:13 PM 58.1°F14.5°C 35.1°F1.7°C 42% 2.0 mph SW3.2 kmh SW -- 30.04 in1017.3 mb 0.00 in0.0 mm 0.00 in0.0 mm 0.00 in0.0 mm
12:18 PM 57.7°F14.3°C 34.8°F1.6°C 42% 4.0 mph W6.4 kmh W -- 30.04 in1017.3 mb 0.00 in0.0 mm 0.00 in0.0 mm 0.00 in0.0 mm
12:23 PM 60.4°F15.8°C 36.0°F2.2°C 40% 2.0 mph ESE3.2 kmh ESE -- 30.03 in1016.9 mb 0.00 in0.0 mm 0.00 in0.0 mm 0.00 in0.0 mm
12:28 PM 60.1°F15.6°C 36.3°F2.4°C 41% 5.0 mph W8.0 kmh W -- 30.04 in1017.3 mb 0.00 in0.0 mm 0.00 in0.0 mm 0.00 in0.0 mm
12:33 PM 59.0°F15.0°C 34.7°F1.5°C 40% 3.0 mph W4.8 kmh W -- 30.04 in1017.3 mb 0.00 in0.0 mm 0.00 in0.0 mm 0.00 in0.0 mm
12:38 PM 59.9°F15.5°C 36.8°F2.7°C 42% 2.0 mph W3.2 kmh W -- 30.03 in1016.9 mb 0.00 in0.0 mm 0.00 in0.0 mm 0.00 in0.0 mm
12:43 PM 60.8°F16.0°C 37.0°F2.8°C 41% 1.0 mph E1.6 kmh E -- 30.03 in1016.9 mb 0.00 in0.0 mm 0.00 in0.0 mm 0.00 in0.0 mm
12:48 PM 60.8°F16.0°C 37.0°F2.8°C 41% 5.0 mph WSW8.0 kmh WSW -- 30.03 in1016.9 mb 0.00 in0.0 mm 0.00 in0.0 mm 0.00 in0.0 mm
12:53 PM 60.1°F15.6°C 36.3°F2.4°C 41% Calm Calm -- 30.03 in1016.9 mb 0.00 in0.0 mm 0.00 in0.0 mm 0.00 in0.0 mm
12:58 PM 61.9°F16.6°C 37.3°F2.9°C 40% 4.0 mph SW6.4 kmh SW -- 30.02 in1016.6 mb 0.00 in0.0 mm 0.00 in0.0 mm 0.00 in0.0 mm
01:03 PM 62.6°F17.0°C 37.9°F3.3°C 40% 4.0 mph SW6.4 kmh SW -- 30.03 in1016.9 mb 0.00 in0.0 mm 0.00 in0.0 mm 0.00 in0.0 mm
01:08 PM 60.3°F15.7°C 35.9°F2.2°C 40% 4.0 mph E6.4 kmh E -- 30.02 in1016.6 mb 0.00 in0.0 mm 0.00 in0.0 mm 0.00 in0.0 mm
01:13 PM 62.2°F16.8°C 38.2°F3.4°C 41% 1.0 mph W1.6 kmh W -- 30.02 in1016.6 mb 0.00 in0.0 mm 0.00 in0.0 mm 0.00 in0.0 mm
01:18 PM 63.3°F17.4°C 37.3°F2.9°C 38% 4.0 mph WSW6.4 kmh WSW -- 30.02 in1016.6 mb 0.00 in0.0 mm 0.00 in0.0 mm 0.00 in0.0 mm
01:23 PM 62.4°F16.9°C 35.8°F2.1°C 37% 2.0 mph W3.2 kmh W -- 30.02 in1016.6 mb 0.00 in0.0 mm 0.00 in0.0 mm 0.00 in0.0 mm
01:28 PM 62.6°F17.0°C 36.6°F2.6°C 38% 5.0 mph WSW8.0 kmh WSW -- 30.02 in1016.6 mb 0.00 in0.0 mm 0.00 in0.0 mm 0.00 in0.0 mm
01:33 PM 63.1°F17.3°C 37.1°F2.8°C 38% 6.0 mph NNE9.7 kmh NNE -- 30.02 in1016.6 mb 0.00 in0.0 mm 0.00 in0.0 mm 0.00 in0.0 mm
01:38 PM 63.7°F17.6°C 37.6°F3.1°C 38% 3.0 mph 4.8 kmh -- 30.02 in1016.6 mb 0.00 in0.0 mm 0.00 in0.0 mm 0.00 in0.0 mm
01:43 PM 63.1°F17.3°C 38.4°F3.6°C 40% 3.0 mph 4.8 kmh -- 30.02 in1016.6 mb 0.00 in0.0 mm 0.00 in0.0 mm 0.00 in0.0 mm
01:48 PM 63.5°F17.5°C 38.7°F3.7°C 40% 4.0 mph S6.4 kmh S -- 30.01 in1016.3 mb 0.00 in0.0 mm 0.00 in0.0 mm 0.00 in0.0 mm
01:53 PM 63.7°F17.6°C 37.6°F3.1°C 38% 2.0 mph SSW3.2 kmh SSW -- 30.01 in1016.3 mb 0.00 in0.0 mm 0.00 in0.0 mm 0.00 in0.0 mm
01:58 PM 64.2°F17.9°C 38.7°F3.7°C 39% 2.0 mph SSW3.2 kmh SSW -- 30.01 in1016.3 mb 0.00 in0.0 mm 0.00 in0.0 mm 0.00 in0.0 mm
02:03 PM 63.7°F17.6°C 38.3°F3.5°C 39% 2.0 mph NE3.2 kmh NE -- 30.01 in1016.3 mb 0.00 in0.0 mm 0.00 in0.0 mm 0.00 in0.0 mm
02:08 PM 63.3°F17.4°C 35.2°F1.8°C 35% 8.0 mph W12.9 kmh W -- 30.01 in1016.3 mb 0.00 in0.0 mm 0.00 in0.0 mm 0.00 in0.0 mm
02:13 PM 62.2°F16.8°C 34.9°F1.6°C 36% 6.0 mph W9.7 kmh W -- 30.01 in1016.3 mb 0.00 in0.0 mm 0.00 in0.0 mm 0.00 in0.0 mm
02:18 PM 63.0°F17.2°C 35.6°F2.0°C 36% 5.0 mph S8.0 kmh S -- 30.01 in1016.3 mb 0.00 in0.0 mm 0.00 in0.0 mm 0.00 in0.0 mm
02:23 PM 62.4°F16.9°C 35.8°F2.1°C 37% 4.0 mph NNW6.4 kmh NNW -- 30.01 in1016.3 mb 0.00 in0.0 mm 0.00 in0.0 mm 0.00 in0.0 mm
02:28 PM 63.5°F17.5°C 36.1°F2.3°C 36% 4.0 mph SE6.4 kmh SE -- 30.01 in1016.3 mb 0.00 in0.0 mm 0.00 in0.0 mm 0.00 in0.0 mm
02:33 PM 62.6°F17.0°C 35.3°F1.8°C 36% 8.0 mph W12.9 kmh W -- 30.01 in1016.3 mb 0.00 in0.0 mm 0.00 in0.0 mm 0.00 in0.0 mm
02:38 PM 61.9°F16.6°C 36.0°F2.2°C 38% 8.0 mph W12.9 kmh W -- 30.01 in1016.3 mb 0.00 in0.0 mm 0.00 in0.0 mm 0.00 in0.0 mm
02:43 PM 62.2°F16.8°C 35.6°F2.0°C 37% 4.0 mph W6.4 kmh W -- 30.00 in1015.9 mb 0.00 in0.0 mm 0.00 in0.0 mm 0.00 in0.0 mm
02:48 PM 63.1°F17.3°C 37.7°F3.2°C 39% 4.0 mph SSW6.4 kmh SSW -- 30.00 in1015.9 mb 0.00 in0.0 mm 0.00 in0.0 mm 0.00 in0.0 mm
02:53 PM 63.7°F17.6°C 36.9°F2.7°C 37% 8.0 mph SW12.9 kmh SW -- 30.00 in1015.9 mb 0.00 in0.0 mm 0.00 in0.0 mm 0.00 in0.0 mm
02:58 PM 62.6°F17.0°C 36.6°F2.6°C 38% 3.0 mph W4.8 kmh W -- 30.01 in1016.3 mb 0.00 in0.0 mm 0.00 in0.0 mm 0.00 in0.0 mm
03:03 PM 63.9°F17.7°C 38.5°F3.6°C 39% 7.0 mph S11.3 kmh S -- 30.00 in1015.9 mb 0.00 in0.0 mm 0.00 in0.0 mm 0.00 in0.0 mm
03:08 PM 63.7°F17.6°C 36.9°F2.7°C 37% 5.0 mph S8.0 kmh S -- 30.00 in1015.9 mb 0.00 in0.0 mm 0.00 in0.0 mm 0.00 in0.0 mm
03:13 PM 62.8°F17.1°C 38.1°F3.4°C 40% 6.0 mph W9.7 kmh W -- 30.00 in1015.9 mb 0.00 in0.0 mm 0.00 in0.0 mm 0.00 in0.0 mm
03:18 PM 63.0°F17.2°C 38.9°F3.8°C 41% 2.0 mph ESE3.2 kmh ESE -- 30.00 in1015.9 mb 0.00 in0.0 mm 0.00 in0.0 mm 0.00 in0.0 mm
03:23 PM 63.9°F17.7°C 38.5°F3.6°C 39% 6.0 mph SSE9.7 kmh SSE -- 30.00 in1015.9 mb 0.00 in0.0 mm 0.00 in0.0 mm 0.00 in0.0 mm
03:28 PM 63.5°F17.5°C 38.7°F3.7°C 40% 6.0 mph WSW9.7 kmh WSW -- 30.00 in1015.9 mb 0.00 in0.0 mm 0.00 in0.0 mm 0.00 in0.0 mm
03:33 PM 63.7°F17.6°C 38.9°F3.8°C 40% 3.0 mph SE4.8 kmh SE -- 30.00 in1015.9 mb 0.00 in0.0 mm 0.00 in0.0 mm 0.00 in0.0 mm
03:38 PM 63.5°F17.5°C 40.0°F4.4°C 42% 2.0 mph SSW3.2 kmh SSW -- 30.01 in1016.3 mb 0.00 in0.0 mm 0.00 in0.0 mm 0.00 in0.0 mm
03:43 PM 64.2°F17.9°C 39.4°F4.1°C 40% 3.0 mph SE4.8 kmh SE -- 30.00 in1015.9 mb 0.00 in0.0 mm 0.00 in0.0 mm 0.00 in0.0 mm
03:48 PM 64.6°F18.1°C 39.7°F4.3°C 40% 2.0 mph SSE3.2 kmh SSE -- 30.01 in1016.3 mb 0.00 in0.0 mm 0.00 in0.0 mm 0.00 in0.0 mm
03:53 PM 64.8°F18.2°C 39.3°F4.1°C 39% 2.0 mph ESE3.2 kmh ESE -- 30.01 in1016.3 mb 0.00 in0.0 mm 0.00 in0.0 mm 0.00 in0.0 mm
03:58 PM 63.9°F17.7°C 39.7°F4.3°C 41% 2.0 mph NE3.2 kmh NE -- 30.01 in1016.3 mb 0.00 in0.0 mm 0.00 in0.0 mm 0.00 in0.0 mm
04:03 PM 64.4°F18.0°C 39.5°F4.2°C 40% 4.0 mph S6.4 kmh S -- 30.00 in1015.9 mb 0.00 in0.0 mm 0.00 in0.0 mm 0.00 in0.0 mm
04:08 PM 63.5°F17.5°C 38.7°F3.7°C 40% 4.0 mph SSW6.4 kmh SSW -- 30.00 in1015.9 mb 0.00 in0.0 mm 0.00 in0.0 mm 0.00 in0.0 mm
04:13 PM 64.6°F18.1°C 39.1°F3.9°C 39% 3.0 mph SSW4.8 kmh SSW -- 30.00 in1015.9 mb 0.00 in0.0 mm 0.00 in0.0 mm 0.00 in0.0 mm
04:18 PM 63.5°F17.5°C 39.4°F4.1°C 41% 5.0 mph ESE8.0 kmh ESE -- 30.00 in1015.9 mb 0.00 in0.0 mm 0.00 in0.0 mm 0.00 in0.0 mm
04:23 PM 64.2°F17.9°C 39.4°F4.1°C 40% 4.0 mph SSW6.4 kmh SSW -- 30.01 in1016.3 mb 0.00 in0.0 mm 0.00 in0.0 mm 0.00 in0.0 mm
04:28 PM 63.7°F17.6°C 39.6°F4.2°C 41% 1.0 mph ESE1.6 kmh ESE -- 30.01 in1016.3 mb 0.00 in0.0 mm 0.00 in0.0 mm 0.00 in0.0 mm
04:33 PM 64.0°F17.8°C 39.2°F4.0°C 40% 4.0 mph W6.4 kmh W -- 30.01 in1016.3 mb 0.00 in0.0 mm 0.00 in0.0 mm 0.00 in0.0 mm
04:40 PM 64.0°F17.8°C 39.2°F4.0°C 40% 2.0 mph S3.2 kmh S -- 30.01 in1016.3 mb 0.00 in0.0 mm 0.00 in0.0 mm 0.00 in0.0 mm
04:48 PM 63.1°F17.3°C 39.6°F4.2°C 42% 4.0 mph S6.4 kmh S -- 30.01 in1016.3 mb 0.00 in0.0 mm 0.00 in0.0 mm 0.00 in0.0 mm
04:53 PM 63.3°F17.4°C 39.2°F4.0°C 41% 3.0 mph NNW4.8 kmh NNW -- 30.01 in1016.3 mb 0.00 in0.0 mm 0.00 in0.0 mm 0.00 in0.0 mm
04:58 PM 62.6°F17.0°C 39.2°F4.0°C 42% 2.0 mph W3.2 kmh W -- 30.01 in1016.3 mb 0.00 in0.0 mm 0.00 in0.0 mm 0.00 in0.0 mm
05:03 PM 62.6°F17.0°C 39.2°F4.0°C 42% 2.0 mph WNW3.2 kmh WNW -- 30.01 in1016.3 mb 0.00 in0.0 mm 0.00 in0.0 mm 0.00 in0.0 mm
05:08 PM 62.6°F17.0°C 39.8°F4.3°C 43% 2.0 mph ESE3.2 kmh ESE -- 30.01 in1016.3 mb 0.00 in0.0 mm 0.00 in0.0 mm 0.00 in0.0 mm
05:13 PM 62.2°F16.8°C 39.4°F4.1°C 43% 2.0 mph SW3.2 kmh SW -- 30.01 in1016.3 mb 0.00 in0.0 mm 0.00 in0.0 mm 0.00 in0.0 mm
05:18 PM 61.5°F16.4°C 39.4°F4.1°C 44% 3.0 mph WSW4.8 kmh WSW -- 30.01 in1016.3 mb 0.00 in0.0 mm 0.00 in0.0 mm 0.00 in0.0 mm
05:23 PM 60.6°F15.9°C 38.6°F3.7°C 44% 4.0 mph S6.4 kmh S -- 30.01 in1016.3 mb 0.00 in0.0 mm 0.00 in0.0 mm 0.00 in0.0 mm
05:28 PM 60.3°F15.7°C 38.9°F3.8°C 45% 4.0 mph SW6.4 kmh SW -- 30.01 in1016.3 mb 0.00 in0.0 mm 0.00 in0.0 mm 0.00 in0.0 mm
05:33 PM 59.7°F15.4°C 38.9°F3.8°C 46% 2.0 mph 3.2 kmh -- 30.01 in1016.3 mb 0.00 in0.0 mm 0.00 in0.0 mm 0.00 in0.0 mm
05:38 PM 59.0°F15.0°C 38.2°F3.4°C 46% 2.0 mph W3.2 kmh W -- 30.01 in1016.3 mb 0.00 in0.0 mm 0.00 in0.0 mm 0.00 in0.0 mm
05:43 PM 58.5°F14.7°C 38.9°F3.8°C 48% 2.0 mph SSW3.2 kmh SSW -- 30.01 in1016.3 mb 0.00 in0.0 mm 0.00 in0.0 mm 0.00 in0.0 mm
05:48 PM 57.7°F14.3°C 38.7°F3.7°C 49% 2.0 mph W3.2 kmh W -- 30.02 in1016.6 mb 0.00 in0.0 mm 0.00 in0.0 mm 0.00 in0.0 mm
05:53 PM 57.2°F14.0°C 38.2°F3.4°C 49% 1.0 mph WSW1.6 kmh WSW -- 30.02 in1016.6 mb 0.00 in0.0 mm 0.00 in0.0 mm 0.00 in0.0 mm
05:58 PM 56.7°F13.7°C 38.3°F3.5°C 50% 1.0 mph W1.6 kmh W -- 30.02 in1016.6 mb 0.00 in0.0 mm 0.00 in0.0 mm 0.00 in0.0 mm
06:03 PM 56.3°F13.5°C 38.4°F3.6°C 51% 2.0 mph SW3.2 kmh SW -- 30.02 in1016.6 mb 0.00 in0.0 mm 0.00 in0.0 mm 0.00 in0.0 mm
06:08 PM 55.9°F13.3°C 38.5°F3.6°C 52% 2.0 mph SW3.2 kmh SW -- 30.02 in1016.6 mb 0.00 in0.0 mm 0.00 in0.0 mm 0.00 in0.0 mm
06:13 PM 55.6°F13.1°C 38.3°F3.5°C 52% 2.0 mph SW3.2 kmh SW -- 30.02 in1016.6 mb 0.00 in0.0 mm 0.00 in0.0 mm 0.00 in0.0 mm
06:18 PM 55.2°F12.9°C 38.4°F3.6°C 53% 1.0 mph SW1.6 kmh SW -- 30.02 in1016.6 mb 0.00 in0.0 mm 0.00 in0.0 mm 0.00 in0.0 mm
06:23 PM 54.9°F12.7°C 38.1°F3.4°C 53% 1.0 mph S1.6 kmh S -- 30.02 in1016.6 mb 0.00 in0.0 mm 0.00 in0.0 mm 0.00 in0.0 mm
06:28 PM 54.7°F12.6°C 37.9°F3.3°C 53% 2.0 mph SSW3.2 kmh SSW -- 30.03 in1016.9 mb 0.00 in0.0 mm 0.00 in0.0 mm 0.00 in0.0 mm
06:33 PM 54.3°F12.4°C 38.0°F3.3°C 54% 2.0 mph E3.2 kmh E -- 30.03 in1016.9 mb 0.00 in0.0 mm 0.00 in0.0 mm 0.00 in0.0 mm
06:38 PM 54.0°F12.2°C 38.2°F3.4°C 55% 2.0 mph W3.2 kmh W -- 30.03 in1016.9 mb 0.00 in0.0 mm 0.00 in0.0 mm 0.00 in0.0 mm
06:43 PM 53.6°F12.0°C 37.8°F3.2°C 55% 1.0 mph SSW1.6 kmh SSW -- 30.03 in1016.9 mb 0.00 in0.0 mm 0.00 in0.0 mm 0.00 in0.0 mm
06:48 PM 53.2°F11.8°C 37.9°F3.3°C 56% 2.0 mph SW3.2 kmh SW -- 30.03 in1016.9 mb 0.00 in0.0 mm 0.00 in0.0 mm 0.00 in0.0 mm
06:53 PM 53.1°F11.7°C 38.3°F3.5°C 57% 2.0 mph WSW3.2 kmh WSW -- 30.04 in1017.3 mb 0.00 in0.0 mm 0.00 in0.0 mm 0.00 in0.0 mm
06:58 PM 53.1°F11.7°C 38.7°F3.7°C 58% 1.0 mph WSW1.6 kmh WSW -- 30.04 in1017.3 mb 0.00 in0.0 mm 0.00 in0.0 mm 0.00 in0.0 mm
07:03 PM 52.9°F11.6°C 39.0°F3.9°C 59% 2.0 mph WSW3.2 kmh WSW -- 30.04 in1017.3 mb 0.00 in0.0 mm 0.00 in0.0 mm 0.00 in0.0 mm
07:08 PM 52.7°F11.5°C 38.8°F3.8°C 59% 2.0 mph W3.2 kmh W -- 30.04 in1017.3 mb 0.00 in0.0 mm 0.00 in0.0 mm 0.00 in0.0 mm
07:13 PM 52.7°F11.5°C 38.8°F3.8°C 59% 2.0 mph W3.2 kmh W -- 30.04 in1017.3 mb 0.00 in0.0 mm 0.00 in0.0 mm 0.00 in0.0 mm
07:18 PM 52.7°F11.5°C 38.8°F3.8°C 59% 1.0 mph SW1.6 kmh SW -- 30.04 in1017.3 mb 0.00 in0.0 mm 0.00 in0.0 mm 0.00 in0.0 mm
07:23 PM 52.5°F11.4°C 38.6°F3.7°C 59% 2.0 mph WSW3.2 kmh WSW -- 30.04 in1017.3 mb 0.00 in0.0 mm 0.00 in0.0 mm 0.00 in0.0 mm
07:28 PM 52.3°F11.3°C 38.4°F3.6°C 59% 1.0 mph WSW1.6 kmh WSW -- 30.04 in1017.3 mb 0.00 in0.0 mm 0.00 in0.0 mm 0.00 in0.0 mm
07:33 PM 52.3°F11.3°C 38.4°F3.6°C 59% 1.0 mph WSW1.6 kmh WSW -- 30.04 in1017.3 mb 0.00 in0.0 mm 0.00 in0.0 mm 0.00 in0.0 mm
07:38 PM 52.2°F11.2°C 38.3°F3.5°C 59% 2.0 mph SSW3.2 kmh SSW -- 30.05 in1017.6 mb 0.00 in0.0 mm 0.00 in0.0 mm 0.00 in0.0 mm
07:43 PM 52.2°F11.2°C 38.3°F3.5°C 59% 3.0 mph SW4.8 kmh SW -- 30.05 in1017.6 mb 0.00 in0.0 mm 0.00 in0.0 mm 0.00 in0.0 mm
07:48 PM 52.2°F11.2°C 38.3°F3.5°C 59% 2.0 mph W3.2 kmh W -- 30.05 in1017.6 mb 0.00 in0.0 mm 0.00 in0.0 mm 0.00 in0.0 mm
07:53 PM 52.2°F11.2°C 38.3°F3.5°C 59% 2.0 mph SW3.2 kmh SW -- 30.05 in1017.6 mb 0.00 in0.0 mm 0.00 in0.0 mm 0.00 in0.0 mm
07:58 PM 52.2°F11.2°C 37.9°F3.3°C 58% 3.0 mph SSW4.8 kmh SSW -- 30.05 in1017.6 mb 0.00 in0.0 mm 0.00 in0.0 mm 0.00 in0.0 mm
08:03 PM 52.2°F11.2°C 37.9°F3.3°C 58% 2.0 mph SW3.2 kmh SW -- 30.05 in1017.6 mb 0.00 in0.0 mm 0.00 in0.0 mm 0.00 in0.0 mm
08:08 PM 52.2°F11.2°C 37.9°F3.3°C 58% 3.0 mph W4.8 kmh W -- 30.05 in1017.6 mb 0.00 in0.0 mm 0.00 in0.0 mm 0.00 in0.0 mm
08:13 PM 52.5°F11.4°C 37.7°F3.2°C 57% 2.0 mph ESE3.2 kmh ESE -- 30.05 in1017.6 mb 0.00 in0.0 mm 0.00 in0.0 mm 0.00 in0.0 mm
08:18 PM 52.5°F11.4°C 37.7°F3.2°C 57% Calm Calm -- 30.05 in1017.6 mb 0.00 in0.0 mm 0.00 in0.0 mm 0.00 in0.0 mm
08:23 PM 52.5°F11.4°C 37.7°F3.2°C 57% 2.0 mph S3.2 kmh S -- 30.05 in1017.6 mb 0.00 in0.0 mm 0.00 in0.0 mm 0.00 in0.0 mm
08:28 PM 51.8°F11.0°C 37.5°F3.1°C 58% Calm Calm -- 30.05 in1017.6 mb 0.00 in0.0 mm 0.00 in0.0 mm 0.00 in0.0 mm
08:33 PM 51.6°F10.9°C 37.7°F3.2°C 59% 2.0 mph SW3.2 kmh SW -- 30.05 in1017.6 mb 0.00 in0.0 mm 0.00 in0.0 mm 0.00 in0.0 mm
08:38 PM 51.4°F10.8°C 38.0°F3.3°C 60% 2.0 mph WSW3.2 kmh WSW -- 30.06 in1017.9 mb 0.00 in0.0 mm 0.00 in0.0 mm 0.00 in0.0 mm
08:43 PM 51.3°F10.7°C 38.3°F3.5°C 61% 2.0 mph W3.2 kmh W -- 30.06 in1017.9 mb 0.00 in0.0 mm 0.00 in0.0 mm 0.00 in0.0 mm
08:48 PM 51.1°F10.6°C 38.1°F3.4°C 61% 2.0 mph SSW3.2 kmh SSW -- 30.06 in1017.9 mb 0.00 in0.0 mm 0.00 in0.0 mm 0.00 in0.0 mm
08:53 PM 50.9°F10.5°C 37.9°F3.3°C 61% 3.0 mph SSW4.8 kmh SSW -- 30.06 in1017.9 mb 0.00 in0.0 mm 0.00 in0.0 mm 0.00 in0.0 mm
08:58 PM 50.9°F10.5°C 37.9°F3.3°C 61% 2.0 mph SW3.2 kmh SW -- 30.06 in1017.9 mb 0.00 in0.0 mm 0.00 in0.0 mm 0.00 in0.0 mm
09:03 PM 50.9°F10.5°C 37.9°F3.3°C 61% 2.0 mph SW3.2 kmh SW -- 30.05 in1017.6 mb 0.00 in0.0 mm 0.00 in0.0 mm 0.00 in0.0 mm
09:08 PM 50.9°F10.5°C 38.4°F3.6°C 62% 2.0 mph SW3.2 kmh SW -- 30.06 in1017.9 mb 0.00 in0.0 mm 0.00 in0.0 mm 0.00 in0.0 mm
09:13 PM 50.5°F10.3°C 38.4°F3.6°C 63% 1.0 mph W1.6 kmh W -- 30.06 in1017.9 mb 0.00 in0.0 mm 0.00 in0.0 mm 0.00 in0.0 mm
09:18 PM 50.0°F10.0°C 38.3°F3.5°C 64% 1.0 mph WSW1.6 kmh WSW -- 30.06 in1017.9 mb 0.00 in0.0 mm 0.00 in0.0 mm 0.00 in0.0 mm
09:23 PM 50.0°F10.0°C 38.3°F3.5°C 64% 2.0 mph WSW3.2 kmh WSW -- 30.06 in1017.9 mb 0.00 in0.0 mm 0.00 in0.0 mm 0.00 in0.0 mm
09:28 PM 49.8°F9.9°C 38.1°F3.4°C 64% 1.0 mph SW1.6 kmh SW -- 30.06 in1017.9 mb 0.00 in0.0 mm 0.00 in0.0 mm 0.00 in0.0 mm
09:33 PM 49.6°F9.8°C 37.9°F3.3°C 64% 1.0 mph WSW1.6 kmh WSW -- 30.06 in1017.9 mb 0.00 in0.0 mm 0.00 in0.0 mm 0.00 in0.0 mm
09:38 PM 49.1°F9.5°C 37.5°F3.1°C 64% Calm Calm -- 30.07 in1018.3 mb 0.00 in0.0 mm 0.00 in0.0 mm 0.00 in0.0 mm
09:43 PM 48.7°F9.3°C 37.5°F3.1°C 65% 2.0 mph WSW3.2 kmh WSW -- 30.07 in1018.3 mb 0.00 in0.0 mm 0.00 in0.0 mm 0.00 in0.0 mm
09:48 PM 48.7°F9.3°C 37.5°F3.1°C 65% 1.0 mph WSW1.6 kmh WSW -- 30.07 in1018.3 mb 0.00 in0.0 mm 0.00 in0.0 mm 0.00 in0.0 mm
09:53 PM 48.7°F9.3°C 37.5°F3.1°C 65% Calm Calm -- 30.07 in1018.3 mb 0.00 in0.0 mm 0.00 in0.0 mm 0.00 in0.0 mm
09:58 PM 48.7°F9.3°C 37.5°F3.1°C 65% 2.0 mph WSW3.2 kmh WSW -- 30.07 in1018.3 mb 0.00 in0.0 mm 0.00 in0.0 mm 0.00 in0.0 mm
10:03 PM 48.9°F9.4°C 37.7°F3.2°C 65% 1.0 mph WSW1.6 kmh WSW -- 30.07 in1018.3 mb 0.00 in0.0 mm 0.00 in0.0 mm 0.00 in0.0 mm
10:08 PM 48.9°F9.4°C 37.7°F3.2°C 65% Calm Calm -- 30.07 in1018.3 mb 0.00 in0.0 mm 0.00 in0.0 mm 0.00 in0.0 mm
10:13 PM 48.7°F9.3°C 37.9°F3.3°C 66% Calm Calm -- 30.07 in1018.3 mb 0.00 in0.0 mm 0.00 in0.0 mm 0.00 in0.0 mm
10:18 PM 47.5°F8.6°C 38.9°F3.8°C 72% Calm Calm -- 30.07 in1018.3 mb 0.00 in0.0 mm 0.00 in0.0 mm 0.00 in0.0 mm
10:23 PM 47.1°F8.4°C 37.1°F2.8°C 68% Calm Calm -- 30.07 in1018.3 mb 0.00 in0.0 mm 0.00 in0.0 mm 0.00 in0.0 mm
10:28 PM 47.5°F8.6°C 37.5°F3.1°C 68% 2.0 mph SSW3.2 kmh SSW -- 30.07 in1018.3 mb 0.00 in0.0 mm 0.00 in0.0 mm 0.00 in0.0 mm
10:33 PM 47.5°F8.6°C 37.5°F3.1°C 68% Calm Calm -- 30.08 in1018.6 mb 0.00 in0.0 mm 0.00 in0.0 mm 0.00 in0.0 mm
10:38 PM 47.5°F8.6°C 37.8°F3.2°C 69% Calm Calm -- 30.08 in1018.6 mb 0.00 in0.0 mm 0.00 in0.0 mm 0.00 in0.0 mm
10:43 PM 47.5°F8.6°C 37.8°F3.2°C 69% 1.0 mph WSW1.6 kmh WSW -- 30.08 in1018.6 mb 0.00 in0.0 mm 0.00 in0.0 mm 0.00 in0.0 mm
10:48 PM 47.5°F8.6°C 37.8°F3.2°C 69% 2.0 mph W3.2 kmh W -- 30.08 in1018.6 mb 0.00 in0.0 mm 0.00 in0.0 mm 0.00 in0.0 mm
10:53 PM 47.5°F8.6°C 37.8°F3.2°C 69% Calm Calm -- 30.08 in1018.6 mb 0.00 in0.0 mm 0.00 in0.0 mm 0.00 in0.0 mm
10:58 PM 47.5°F8.6°C 37.8°F3.2°C 69% Calm Calm -- 30.08 in1018.6 mb 0.00 in0.0 mm 0.00 in0.0 mm 0.00 in0.0 mm
11:03 PM 47.3°F8.5°C 37.3°F2.9°C 68% Calm Calm -- 30.07 in1018.3 mb 0.00 in0.0 mm 0.00 in0.0 mm 0.00 in0.0 mm
11:08 PM 47.1°F8.4°C 37.1°F2.8°C 68% Calm Calm -- 30.07 in1018.3 mb 0.00 in0.0 mm 0.00 in0.0 mm 0.00 in0.0 mm
11:13 PM 46.9°F8.3°C 36.9°F2.7°C 68% Calm Calm -- 30.07 in1018.3 mb 0.00 in0.0 mm 0.00 in0.0 mm 0.00 in0.0 mm
11:18 PM 46.6°F8.1°C 37.0°F2.8°C 69% Calm Calm -- 30.07 in1018.3 mb 0.00 in0.0 mm 0.00 in0.0 mm 0.00 in0.0 mm
11:23 PM 46.4°F8.0°C 36.8°F2.7°C 69% Calm Calm -- 30.07 in1018.3 mb 0.00 in0.0 mm 0.00 in0.0 mm 0.00 in0.0 mm
11:28 PM 46.4°F8.0°C 37.9°F3.3°C 72% Calm Calm -- 30.07 in1018.3 mb 0.00 in0.0 mm 0.00 in0.0 mm 0.00 in0.0 mm
11:33 PM 46.2°F7.9°C 38.0°F3.3°C 73% Calm Calm -- 30.07 in1018.3 mb 0.00 in0.0 mm 0.00 in0.0 mm 0.00 in0.0 mm
11:38 PM 46.2°F7.9°C 37.7°F3.2°C 72% 2.0 mph WSW3.2 kmh WSW -- 30.07 in1018.3 mb 0.00 in0.0 mm 0.00 in0.0 mm 0.00 in0.0 mm
11:43 PM 46.2°F7.9°C 37.7°F3.2°C 72% 2.0 mph W3.2 kmh W -- 30.07 in1018.3 mb 0.00 in0.0 mm 0.00 in0.0 mm 0.00 in0.0 mm
11:48 PM 46.6°F8.1°C 38.1°F3.4°C 72% 2.0 mph WSW3.2 kmh WSW -- 30.07 in1018.3 mb 0.00 in0.0 mm 0.00 in0.0 mm 0.00 in0.0 mm
11:53 PM 46.8°F8.2°C 37.9°F3.3°C 71% 2.0 mph WSW3.2 kmh WSW -- 30.07 in1018.3 mb 0.00 in0.0 mm 0.00 in0.0 mm 0.00 in0.0 mm
11:58 PM 46.9°F8.3°C 37.6°F3.1°C 70% 2.0 mph WSW3.2 kmh WSW -- 30.07 in1018.3 mb 0.00 in0.0 mm 0.00 in0.0 mm 0.00 in0.0 mm